VTBS

Suvarnabhumi Airport

Bangkok, Thailand
TAF VTBS 162300Z 1700/1806 27005KT 9999 FEW020 SCT100 BECMG 1702/1704 21010KT FEW020 SCT035 TEMPO 1708/1712 24015KT 5000 TSRA FEW018CB SCT030 BKN100 BECMG 1716/1718 28005KT FEW020 SCT100 BECMG 1802/1804 22010KT FEW020
Issued Valid From Valid To
Jul-16 @ 23:00 UTC
(an hour ago)
Jul-17 @ 00:00 UTC
(25 minutes ago)
Jul-18 @ 06:00 UTC
(-1 days ago)
Jul-17 @ 00:00 to Jul-17 @ 02:00
TAF VTBS 162300Z 1700/1806 27005KT 9999 FEW020 SCT100
Wind Visibility Clouds
270° at 5 knots 10,000+ meters
  • Few at 2,000' AGL
  • Scattered at 10,000' AGL
Becoming Jul-17 @ 02:00 to Jul-17 @ 16:00
BECMG 1702/1704 21010KT FEW020 SCT035
Wind Visibility Clouds
210° at 10 knots 10,000+ meters
  • Few at 2,000' AGL
  • Scattered at 3,500' AGL
Temporary Jul-17 @ 08:00 to Jul-17 @ 12:00
TEMPO 1708/1712 24015KT 5000 TSRA FEW018CB SCT030 BKN100
Wind Visibility Clouds Conditions
240° at 15 knots 5,005 meters
  • Few at 1,800' AGL
  • Scattered at 3,000' AGL
  • Broken at 10,000' AGL
  • Thunderstorm
  • Rain
Becoming Jul-17 @ 16:00 to Jul-18 @ 02:00
BECMG 1716/1718 28005KT FEW020 SCT100
Wind Visibility Clouds
280° at 5 knots 10,000+ meters
  • Few at 2,000' AGL
  • Scattered at 10,000' AGL
Becoming Jul-18 @ 02:00 to Jul-18 @ 06:00
BECMG 1802/1804 22010KT FEW020
Wind Visibility Clouds
220° at 10 knots 10,000+ meters
  • Few at 2,000' AGL
TAF VTBS 162300Z 1700/1806 27005KT 9999 FEW020 SCT100 BECMG 1702/1704 21010KT FEW020 SCT035 TEMPO 1708/1712 24015KT 5000 TSRA FEW018CB SCT030 BKN100 BECMG 1716/1718 28005KT FEW020 SCT100 BECMG 1802/1804 22010KT FEW020
Issued Jul-16 @ 23:00 UTC
(an hour ago)
Valid From Jul-17 @ 00:00 UTC
(25 minutes ago)
Valid To Jul-18 @ 06:00 UTC
(-1 days ago)
Jul-17 @ 00:00 - Jul-17 @ 02:00
Wind Visibility
270° at 5 knots 10,000+ meters
Clouds
  • Few at 2,000' AGL
  • Scattered at 10,000' AGL
Becoming Jul-17 @ 02:00 - Jul-17 @ 16:00
Wind Visibility
210° at 10 knots 10,000+ meters
Clouds
  • Few at 2,000' AGL
  • Scattered at 3,500' AGL
Temporary Jul-17 @ 08:00 - Jul-17 @ 12:00
Wind Visibility
240° at 15 knots 5,005 meters
Clouds
  • Few at 1,800' AGL
  • Scattered at 3,000' AGL
  • Broken at 10,000' AGL
Conditions
  • Thunderstorm
  • Rain
Becoming Jul-17 @ 16:00 - Jul-18 @ 02:00
Wind Visibility
280° at 5 knots 10,000+ meters
Clouds
  • Few at 2,000' AGL
  • Scattered at 10,000' AGL
Becoming Jul-18 @ 02:00 - Jul-18 @ 06:00
Wind Visibility
220° at 10 knots 10,000+ meters
Clouds
  • Few at 2,000' AGL